Time;durP1;ratioP1;P1;durP2;ratioP2;P2;SDS_P1;SDS_P2;PMS_P1;PMS_P2;Temp;Humidity;BMP_temperature;BMP_pressure;BME280_temperature;BME280_humidity;BME280_pressure;Samples;Min_cycle;Max_cycle;Signal;HPM_P1;HPM_P2
2023/10/28 00:00:48;;;;;;;28.55;14.98;;;;;;;;;;5044475;28;20039;-80
2023/10/28 00:03:15;;;;;;;25.70;14.10;;;;;;;;;;5060887;28;20037;-80
2023/10/28 00:05:41;;;;;;;29.75;15.13;;;;;;;;;;5045733;28;20032;-80
2023/10/28 00:08:07;;;;;;;25.27;13.82;;;;;;;;;;5079701;28;20036;-81
2023/10/28 00:10:35;;;;;;;26.85;14.75;;;;;;;;;;5047112;28;20048;-81
2023/10/28 00:13:01;;;;;;;26.42;15.10;;;;;;;;;;5063706;28;20155;-81
2023/10/28 00:15:27;;;;;;;25.83;14.48;;;;;;;;;;5048098;28;20037;-81
2023/10/28 00:17:53;;;;;;;26.83;14.38;;;;;;;;;;5063247;28;20048;-81
2023/10/28 00:20:21;;;;;;;27.85;14.57;;;;;;;;;;5046553;28;20062;-80
2023/10/28 00:22:49;;;;;;;30.42;15.30;;;;;;;;;;5046856;28;20151;-81
2023/10/28 00:25:15;;;;;;;28.50;14.68;;;;;;;;;;5045612;28;20036;-81
2023/10/28 00:27:42;;;;;;;28.02;14.38;;;;;;;;;;5065973;28;20042;-83
2023/10/28 00:30:10;;;;;;;27.85;15.38;;;;;;;;;;5049266;28;20098;-83
2023/10/28 00:32:39;;;;;;;27.45;15.60;;;;;;;;;;5064187;28;20052;-83
2023/10/28 00:35:07;;;;;;;26.95;14.88;;;;;;;;;;5047712;28;20032;-82
2023/10/28 00:37:33;;;;;;;25.73;14.10;;;;;;;;;;5048324;28;20048;-83
2023/10/28 00:39:59;;;;;;;27.92;14.80;;;;;;;;;;5045578;28;20045;-83
2023/10/28 00:42:26;;;;;;;28.23;14.77;;;;;;;;;;5046717;28;20037;-83
2023/10/28 00:44:54;;;;;;;25.77;14.57;;;;;;;;;;5046135;28;20476;-84
2023/10/28 00:47:22;;;;;;;25.67;14.32;;;;;;;;;;5047219;28;20040;-83
2023/10/28 00:49:49;;;;;;;27.25;14.65;;;;;;;;;;5045336;28;20088;-82
2023/10/28 00:52:17;;;;;;;24.33;13.80;;;;;;;;;;5053359;28;20570;-82
2023/10/28 00:54:43;;;;;;;26.77;13.02;;;;;;;;;;5051989;28;20036;-82
2023/10/28 00:57:09;;;;;;;25.65;12.80;;;;;;;;;;5067760;28;20055;-82
2023/10/28 00:59:35;;;;;;;22.02;12.60;;;;;;;;;;5073581;28;20116;-82
2023/10/28 01:02:01;;;;;;;20.83;12.93;;;;;;;;;;5036816;28;20044;-83
2023/10/28 01:04:27;;;;;;;22.10;11.85;;;;;;;;;;5055575;28;20373;-83
2023/10/28 01:06:54;;;;;;;20.55;12.02;;;;;;;;;;5054601;28;20143;-83
2023/10/28 01:09:21;;;;;;;21.02;12.40;;;;;;;;;;5031974;28;20443;-82
2023/10/28 01:11:47;;;;;;;24.38;12.75;;;;;;;;;;5039908;28;20408;-83
2023/10/28 01:14:13;;;;;;;25.77;13.13;;;;;;;;;;5053987;28;20043;-82
2023/10/28 01:16:40;;;;;;;24.35;13.35;;;;;;;;;;5073949;28;20044;-82
2023/10/28 01:19:09;;;;;;;24.50;13.18;;;;;;;;;;5057463;28;20432;-82
2023/10/28 01:21:35;;;;;;;26.48;13.45;;;;;;;;;;5056099;28;20053;-82
2023/10/28 01:24:01;;;;;;;27.55;14.18;;;;;;;;;;5059402;28;20036;-82
2023/10/28 01:26:27;;;;;;;28.20;14.98;;;;;;;;;;5070084;28;20048;-83
2023/10/28 01:28:54;;;;;;;30.58;16.23;;;;;;;;;;5070077;28;20055;-83
2023/10/28 01:31:21;;;;;;;28.58;15.35;;;;;;;;;;5068838;28;20041;-83
2023/10/28 01:33:48;;;;;;;35.15;17.25;;;;;;;;;;5056619;28;20048;-83
2023/10/28 01:36:16;;;;;;;30.45;16.63;;;;;;;;;;5072534;28;20545;-82
2023/10/28 01:38:43;;;;;;;34.83;18.17;;;;;;;;;;5034429;28;20049;-82
2023/10/28 01:41:13;;;;;;;35.25;19.15;;;;;;;;;;5047657;28;20040;-83
2023/10/28 01:43:40;;;;;;;38.50;19.80;;;;;;;;;;5069009;28;20044;-82
2023/10/28 01:46:06;;;;;;;38.35;20.38;;;;;;;;;;5068300;28;20389;-82
2023/10/28 01:48:32;;;;;;;41.63;21.42;;;;;;;;;;5050329;28;20037;-83
2023/10/28 01:50:58;;;;;;;41.60;21.08;;;;;;;;;;5069049;28;21668;-82
2023/10/28 01:53:25;;;;;;;42.53;20.33;;;;;;;;;;5053922;28;20049;-83
2023/10/28 01:55:51;;;;;;;42.35;20.83;;;;;;;;;;5035095;28;20111;-82
2023/10/28 01:58:17;;;;;;;41.70;21.33;;;;;;;;;;5035563;28;20067;-82
2023/10/28 02:00:43;;;;;;;41.30;20.77;;;;;;;;;;5040869;28;20374;-82
2023/10/28 02:03:11;;;;;;;42.17;19.58;;;;;;;;;;5050192;28;20055;-82
2023/10/28 02:05:38;;;;;;;41.97;20.38;;;;;;;;;;5052424;28;20124;-82
2023/10/28 02:08:04;;;;;;;41.72;19.75;;;;;;;;;;5065485;28;20082;-81
2023/10/28 02:10:30;;;;;;;40.03;20.58;;;;;;;;;;5054455;28;21023;-82
2023/10/28 02:12:56;;;;;;;45.83;19.20;;;;;;;;;;5069088;28;20036;-83
2023/10/28 02:15:22;;;;;;;41.65;20.27;;;;;;;;;;5052146;28;20032;-83
2023/10/28 02:17:49;;;;;;;44.75;20.10;;;;;;;;;;5046783;28;20449;-82
2023/10/28 02:20:15;;;;;;;45.08;21.30;;;;;;;;;;5065615;28;20168;-81
2023/10/28 02:22:41;;;;;;;48.25;21.88;;;;;;;;;;5035390;28;20048;-82
2023/10/28 02:25:08;;;;;;;47.58;21.58;;;;;;;;;;5066588;28;20029;-81
2023/10/28 02:27:34;;;;;;;45.15;21.90;;;;;;;;;;5051169;28;20400;-81
2023/10/28 02:30:00;;;;;;;55.47;24.02;;;;;;;;;;5051283;28;20048;-80
2023/10/28 02:32:26;;;;;;;56.03;22.95;;;;;;;;;;5047019;28;20412;-81
2023/10/28 02:34:52;;;;;;;57.55;24.35;;;;;;;;;;5049457;28;20048;-81
2023/10/28 02:37:19;;;;;;;49.55;22.42;;;;;;;;;;5045450;28;20041;-82
2023/10/28 02:39:47;;;;;;;51.33;23.23;;;;;;;;;;5063806;28;20497;-83
2023/10/28 02:42:13;;;;;;;51.97;24.02;;;;;;;;;;5053702;28;20047;-83
2023/10/28 02:44:39;;;;;;;53.42;25.30;;;;;;;;;;5048139;28;20121;-83
2023/10/28 02:47:05;;;;;;;62.20;25.48;;;;;;;;;;5051707;28;20070;-83
2023/10/28 02:49:31;;;;;;;59.67;24.30;;;;;;;;;;5050865;28;20388;-82
2023/10/28 02:51:57;;;;;;;63.00;26.13;;;;;;;;;;5050034;28;20708;-83
2023/10/28 02:54:23;;;;;;;56.60;26.13;;;;;;;;;;5040847;28;20049;-83
2023/10/28 02:56:50;;;;;;;60.45;27.10;;;;;;;;;;5049813;28;20105;-83
2023/10/28 02:59:16;;;;;;;57.85;26.35;;;;;;;;;;5049735;28;20043;-83
2023/10/28 03:01:42;;;;;;;61.05;26.35;;;;;;;;;;5048300;28;20059;-81
2023/10/28 03:04:08;;;;;;;70.38;27.17;;;;;;;;;;5052161;28;20032;-82
2023/10/28 03:06:34;;;;;;;64.00;27.10;;;;;;;;;;5053314;28;20058;-83
2023/10/28 03:09:00;;;;;;;59.75;25.98;;;;;;;;;;5027077;28;20045;-82
2023/10/28 03:11:26;;;;;;;69.10;26.98;;;;;;;;;;5049483;28;20075;-83
2023/10/28 03:13:53;;;;;;;62.53;25.95;;;;;;;;;;5049800;28;20033;-83
2023/10/28 03:16:19;;;;;;;62.35;27.80;;;;;;;;;;5067870;28;20078;-82
2023/10/28 03:18:45;;;;;;;58.88;27.15;;;;;;;;;;5037736;28;20032;-81
2023/10/28 03:21:12;;;;;;;67.78;28.02;;;;;;;;;;5052321;28;20055;-82
2023/10/28 03:23:38;;;;;;;64.03;29.17;;;;;;;;;;5036235;28;20064;-82
2023/10/28 03:26:07;;;;;;;65.93;27.35;;;;;;;;;;5066326;28;20036;-82
2023/10/28 03:28:33;;;;;;;67.32;28.70;;;;;;;;;;5066932;28;20055;-83
2023/10/28 03:30:59;;;;;;;67.55;29.65;;;;;;;;;;5051388;28;20050;-82
2023/10/28 03:33:26;;;;;;;70.97;30.42;;;;;;;;;;5049715;28;20076;-82
2023/10/28 03:35:52;;;;;;;72.60;30.05;;;;;;;;;;5033159;28;20036;-82
2023/10/28 03:38:18;;;;;;;70.72;29.42;;;;;;;;;;5050563;28;20076;-82
2023/10/28 03:40:44;;;;;;;75.45;30.52;;;;;;;;;;5049099;28;20059;-82
2023/10/28 03:43:10;;;;;;;69.32;30.75;;;;;;;;;;5050570;28;20049;-82
2023/10/28 03:45:37;;;;;;;71.30;30.42;;;;;;;;;;5030157;28;20045;-83
2023/10/28 03:48:04;;;;;;;73.70;31.25;;;;;;;;;;5050792;28;20123;-82
2023/10/28 03:50:30;;;;;;;79.63;31.48;;;;;;;;;;5034091;28;20051;-82
2023/10/28 03:52:57;;;;;;;75.00;32.25;;;;;;;;;;5037834;28;20496;-82
2023/10/28 03:55:23;;;;;;;75.15;31.25;;;;;;;;;;5048821;28;20500;-82
2023/10/28 03:57:49;;;;;;;70.68;31.80;;;;;;;;;;5047281;28;20442;-82
2023/10/28 04:00:16;;;;;;;68.88;30.42;;;;;;;;;;5064865;28;20059;-81
2023/10/28 04:02:43;;;;;;;72.90;32.17;;;;;;;;;;5033036;28;20448;-81
2023/10/28 04:05:09;;;;;;;72.85;33.20;;;;;;;;;;5034556;28;20534;-82
2023/10/28 04:07:35;;;;;;;72.85;32.25;;;;;;;;;;5046674;28;21251;-83
2023/10/28 04:10:07;;;;;;;73.00;32.28;;;;;;;;;;5049420;28;20094;-82
2023/10/28 04:12:33;;;;;;;67.55;31.10;;;;;;;;;;5032171;28;20045;-82
2023/10/28 04:14:59;;;;;;;73.70;32.42;;;;;;;;;;5051268;28;20037;-82
2023/10/28 04:17:25;;;;;;;71.35;32.65;;;;;;;;;;5041742;28;20094;-82
2023/10/28 04:19:52;;;;;;;63.95;31.95;;;;;;;;;;5047359;28;20042;-83
2023/10/28 04:22:18;;;;;;;72.18;33.40;;;;;;;;;;5051254;28;20037;-83
2023/10/28 04:24:44;;;;;;;71.35;33.55;;;;;;;;;;5070462;28;20098;-82
2023/10/28 04:27:10;;;;;;;72.15;33.42;;;;;;;;;;5053476;28;20064;-82
2023/10/28 04:29:36;;;;;;;76.00;33.78;;;;;;;;;;5034725;28;20037;-82
2023/10/28 04:32:02;;;;;;;74.60;32.20;;;;;;;;;;5036830;28;20040;-82
2023/10/28 04:34:28;;;;;;;64.00;32.97;;;;;;;;;;5052419;28;20410;-82
2023/10/28 04:36:54;;;;;;;68.95;32.53;;;;;;;;;;5053888;28;20052;-83
2023/10/28 04:39:23;;;;;;;73.10;33.60;;;;;;;;;;5050766;28;20093;-83
2023/10/28 04:41:52;;;;;;;70.40;33.83;;;;;;;;;;5050454;28;21308;-83
2023/10/28 04:44:18;;;;;;;67.57;33.85;;;;;;;;;;5045903;28;20083;-82
2023/10/28 04:46:44;;;;;;;59.65;30.70;;;;;;;;;;5067779;28;20047;-82
2023/10/28 04:49:11;;;;;;;58.17;29.05;;;;;;;;;;5050233;28;20047;-82
2023/10/28 04:51:37;;;;;;;59.45;30.50;;;;;;;;;;5052031;28;20055;-81
2023/10/28 04:54:03;;;;;;;68.90;32.42;;;;;;;;;;5033534;28;20050;-82
2023/10/28 04:56:29;;;;;;;64.82;31.15;;;;;;;;;;5051561;28;20045;-82
2023/10/28 04:58:55;;;;;;;58.97;30.52;;;;;;;;;;5049919;28;20119;-82
2023/10/28 05:01:22;;;;;;;55.70;29.90;;;;;;;;;;5067484;28;20143;-82
2023/10/28 05:03:49;;;;;;;57.30;30.25;;;;;;;;;;5070129;28;20041;-82
2023/10/28 05:06:15;;;;;;;69.95;33.65;;;;;;;;;;5057005;28;20527;-83
2023/10/28 05:08:42;;;;;;;64.72;31.52;;;;;;;;;;5052463;28;20033;-82
2023/10/28 05:11:08;;;;;;;72.00;30.80;;;;;;;;;;5052638;28;20571;-81
2023/10/28 05:13:34;;;;;;;62.00;30.80;;;;;;;;;;5052049;28;20032;-82
2023/10/28 05:16:01;;;;;;;66.25;29.50;;;;;;;;;;5053058;28;20045;-82
2023/10/28 05:18:27;;;;;;;61.53;30.27;;;;;;;;;;5071168;28;20040;-82
2023/10/28 05:20:53;;;;;;;65.07;31.25;;;;;;;;;;5036659;28;20099;-82
2023/10/28 05:23:20;;;;;;;54.33;28.73;;;;;;;;;;5053503;28;20128;-82
2023/10/28 05:25:46;;;;;;;61.20;29.30;;;;;;;;;;5054939;28;20037;-81
2023/10/28 05:28:12;;;;;;;61.83;29.65;;;;;;;;;;5055126;28;20039;-81
2023/10/28 05:30:38;;;;;;;65.97;31.05;;;;;;;;;;5069965;28;20104;-81
2023/10/28 05:33:04;;;;;;;63.22;29.15;;;;;;;;;;5034638;28;20047;-81
2023/10/28 05:35:30;;;;;;;65.78;31.45;;;;;;;;;;5059189;28;20741;-83
2023/10/28 05:37:58;;;;;;;59.28;29.73;;;;;;;;;;5067889;28;20067;-82
2023/10/28 05:40:24;;;;;;;66.13;29.50;;;;;;;;;;5052856;28;20492;-82
2023/10/28 05:42:50;;;;;;;64.80;29.90;;;;;;;;;;5067183;28;20052;-81
2023/10/28 05:45:16;;;;;;;72.85;31.33;;;;;;;;;;5047913;28;20039;-82
2023/10/28 05:47:42;;;;;;;56.53;28.50;;;;;;;;;;5032428;28;20065;-82
2023/10/28 05:50:09;;;;;;;61.03;28.33;;;;;;;;;;5049899;28;20075;-82
2023/10/28 05:52:35;;;;;;;61.67;30.95;;;;;;;;;;5066363;28;20100;-82
2023/10/28 05:55:02;;;;;;;72.50;31.10;;;;;;;;;;5068419;28;20041;-82
2023/10/28 05:57:28;;;;;;;75.47;30.58;;;;;;;;;;5050908;28;20492;-81
2023/10/28 05:59:55;;;;;;;64.93;30.88;;;;;;;;;;5083513;28;20036;-82
2023/10/28 06:02:21;;;;;;;64.15;29.13;;;;;;;;;;5053961;28;20504;-81
2023/10/28 06:04:47;;;;;;;66.80;30.55;;;;;;;;;;5035459;28;20039;-82
2023/10/28 06:07:13;;;;;;;59.40;31.50;;;;;;;;;;5051114;28;20034;-81
2023/10/28 06:09:39;;;;;;;58.83;29.70;;;;;;;;;;5052905;28;20035;-81
2023/10/28 06:12:05;;;;;;;66.35;30.98;;;;;;;;;;5047239;28;20166;-81
2023/10/28 06:14:31;;;;;;;73.00;32.42;;;;;;;;;;5065392;28;20054;-82
2023/10/28 06:16:57;;;;;;;64.78;31.20;;;;;;;;;;5066254;28;20047;-81
2023/10/28 06:19:24;;;;;;;66.32;30.08;;;;;;;;;;5067158;28;20369;-82
2023/10/28 06:21:51;;;;;;;69.95;31.05;;;;;;;;;;5066419;28;20049;-82
2023/10/28 06:24:18;;;;;;;76.07;31.05;;;;;;;;;;5053325;28;20391;-80
2023/10/28 06:26:45;;;;;;;62.72;30.27;;;;;;;;;;5068805;28;20377;-81
2023/10/28 06:29:12;;;;;;;77.00;33.03;;;;;;;;;;5068841;28;20047;-81
2023/10/28 06:31:39;;;;;;;69.68;31.65;;;;;;;;;;5053669;28;20123;-81
2023/10/28 06:34:06;;;;;;;67.97;31.05;;;;;;;;;;5036449;28;20098;-81
2023/10/28 06:36:33;;;;;;;65.75;30.77;;;;;;;;;;5068036;28;20040;-82
2023/10/28 06:38:59;;;;;;;70.22;30.52;;;;;;;;;;5049688;28;20130;-80
2023/10/28 06:41:25;;;;;;;85.75;33.60;;;;;;;;;;5066647;28;20045;-81
2023/10/28 06:43:55;;;;;;;81.45;31.10;;;;;;;;;;5047453;28;20036;-81
2023/10/28 06:46:21;;;;;;;72.03;29.73;;;;;;;;;;5063968;28;20056;-82
2023/10/28 06:48:47;;;;;;;67.80;30.00;;;;;;;;;;5043250;28;20060;-82
2023/10/28 06:51:13;;;;;;;76.85;30.85;;;;;;;;;;5047801;28;20036;-81
2023/10/28 06:53:42;;;;;;;77.28;29.73;;;;;;;;;;5048679;28;20067;-81
2023/10/28 06:56:08;;;;;;;72.22;28.67;;;;;;;;;;5032161;28;20044;-81
2023/10/28 06:58:34;;;;;;;66.95;28.52;;;;;;;;;;5046984;28;20488;-81
2023/10/28 07:01:02;;;;;;;64.03;27.80;;;;;;;;;;5044751;28;20444;-82
2023/10/28 07:03:28;;;;;;;70.20;28.50;;;;;;;;;;5044861;28;20273;-82
2023/10/28 07:05:55;;;;;;;71.00;27.50;;;;;;;;;;5043372;28;20048;-81
2023/10/28 07:08:21;;;;;;;65.72;28.00;;;;;;;;;;5047963;28;20044;-82
2023/10/28 07:10:48;;;;;;;65.78;28.73;;;;;;;;;;5051774;28;20044;-81
2023/10/28 07:13:14;;;;;;;70.95;27.70;;;;;;;;;;5044987;28;20094;-82
2023/10/28 07:15:40;;;;;;;64.15;27.63;;;;;;;;;;5047826;28;20496;-82
2023/10/28 07:18:08;;;;;;;70.13;27.25;;;;;;;;;;5048433;28;20117;-82
2023/10/28 07:20:34;;;;;;;67.43;28.08;;;;;;;;;;5045885;28;20051;-81
2023/10/28 07:23:02;;;;;;;62.38;28.25;;;;;;;;;;5045026;28;20127;-81
2023/10/28 07:25:29;;;;;;;56.65;28.85;;;;;;;;;;5063891;28;20361;-80
2023/10/28 07:27:55;;;;;;;57.75;27.45;;;;;;;;;;5048645;28;20117;-83
2023/10/28 07:30:22;;;;;;;54.63;27.08;;;;;;;;;;5050717;28;20113;-83
2023/10/28 07:32:48;;;;;;;54.67;26.65;;;;;;;;;;5029839;28;20060;-82
2023/10/28 07:35:16;;;;;;;54.55;25.98;;;;;;;;;;5047954;28;20043;-83
2023/10/28 07:37:43;;;;;;;59.30;26.92;;;;;;;;;;5033752;28;20044;-82
2023/10/28 07:40:12;;;;;;;49.58;25.88;;;;;;;;;;5034559;28;20435;-83
2023/10/28 07:42:38;;;;;;;43.83;24.83;;;;;;;;;;5051278;28;20075;-83
2023/10/28 07:45:04;;;;;;;43.95;22.73;;;;;;;;;;5062013;28;20477;-83
2023/10/28 07:47:33;;;;;;;45.88;23.10;;;;;;;;;;5030296;28;20445;-84
2023/10/28 07:49:59;;;;;;;41.85;22.88;;;;;;;;;;5048714;28;20048;-83
2023/10/28 07:52:26;;;;;;;47.45;23.48;;;;;;;;;;5067288;28;20067;-84
2023/10/28 07:54:52;;;;;;;39.92;22.05;;;;;;;;;;5033579;28;20112;-83
2023/10/28 07:57:18;;;;;;;47.15;22.85;;;;;;;;;;5071041;28;20109;-83
2023/10/28 07:59:44;;;;;;;45.90;22.85;;;;;;;;;;5052719;28;21674;-83
2023/10/28 08:02:11;;;;;;;36.70;22.45;;;;;;;;;;5046667;28;20044;-83
2023/10/28 08:04:37;;;;;;;34.38;19.02;;;;;;;;;;5045571;28;20067;-83
2023/10/28 08:07:04;;;;;;;32.72;20.42;;;;;;;;;;5051388;28;20092;-82
2023/10/28 08:09:30;;;;;;;22.23;13.40;;;;;;;;;;5053953;28;20059;-83
2023/10/28 08:11:56;;;;;;;17.73;13.45;;;;;;;;;;5071668;28;20083;-83
2023/10/28 08:14:22;;;;;;;15.27;10.60;;;;;;;;;;5053632;28;20036;-86
2023/10/28 08:16:48;;;;;;;21.60;12.05;;;;;;;;;;5052029;28;20045;-83
2023/10/28 08:19:14;;;;;;;16.85;11.07;;;;;;;;;;5033595;28;20204;-81
2023/10/28 08:21:40;;;;;;;17.98;11.52;;;;;;;;;;5069277;28;20057;-82
2023/10/28 08:24:08;;;;;;;19.02;10.63;;;;;;;;;;5072252;28;20162;-83
2023/10/28 08:26:34;;;;;;;18.40;10.90;;;;;;;;;;5071968;28;20115;-82
2023/10/28 08:29:01;;;;;;;17.60;9.65;;;;;;;;;;5055951;28;20032;-83
2023/10/28 08:31:28;;;;;;;16.83;10.70;;;;;;;;;;5054654;28;20518;-83
2023/10/28 08:33:54;;;;;;;21.88;10.82;;;;;;;;;;5055638;28;20052;-83
2023/10/28 08:36:20;;;;;;;17.75;10.95;;;;;;;;;;5065463;28;20049;-83
2023/10/28 08:38:49;;;;;;;17.50;11.18;;;;;;;;;;5055231;28;20074;-82
2023/10/28 08:41:17;;;;;;;26.33;11.32;;;;;;;;;;5033872;28;20040;-83
2023/10/28 08:43:45;;;;;;;15.13;9.88;;;;;;;;;;5068510;28;20448;-82
2023/10/28 08:46:12;;;;;;;18.98;10.65;;;;;;;;;;5069143;28;20036;-81
2023/10/28 08:48:43;;;;;;;18.38;11.25;;;;;;;;;;5067355;28;20560;-82
2023/10/28 08:51:10;;;;;;;14.75;10.13;;;;;;;;;;5068864;28;20153;-83
2023/10/28 08:53:37;;;;;;;14.15;8.65;;;;;;;;;;5067299;28;20052;-83
2023/10/28 08:56:06;;;;;;;22.90;10.65;;;;;;;;;;5051728;28;20045;-82
2023/10/28 08:58:32;;;;;;;11.38;9.80;;;;;;;;;;5049190;28;20135;-83
2023/10/28 09:01:02;;;;;;;15.40;9.55;;;;;;;;;;5075771;28;20044;-83
2023/10/28 09:03:28;;;;;;;14.18;9.27;;;;;;;;;;5054398;28;20094;-82
2023/10/28 09:05:55;;;;;;;13.02;8.65;;;;;;;;;;5046514;28;20036;-82
2023/10/28 09:08:21;;;;;;;11.45;8.75;;;;;;;;;;5042757;28;20055;-80
2023/10/28 09:10:47;;;;;;;11.05;8.45;;;;;;;;;;5047040;28;20107;-81
2023/10/28 09:13:14;;;;;;;15.65;9.30;;;;;;;;;;5064098;28;20074;-83
2023/10/28 09:15:40;;;;;;;10.70;8.68;;;;;;;;;;5027149;28;20086;-83
2023/10/28 09:18:08;;;;;;;14.10;9.43;;;;;;;;;;5065080;28;20051;-82
2023/10/28 09:20:35;;;;;;;10.30;7.45;;;;;;;;;;5065403;28;20131;-83
2023/10/28 09:23:02;;;;;;;11.18;7.97;;;;;;;;;;5062455;28;20553;-82
2023/10/28 09:25:28;;;;;;;13.88;7.70;;;;;;;;;;5046975;28;20534;-84
2023/10/28 09:27:54;;;;;;;10.02;7.25;;;;;;;;;;5025516;28;20040;-83
2023/10/28 09:30:20;;;;;;;10.32;6.78;;;;;;;;;;5047602;28;20536;-82
2023/10/28 09:32:46;;;;;;;10.75;6.78;;;;;;;;;;5032360;28;20484;-82
2023/10/28 09:35:13;;;;;;;8.90;6.55;;;;;;;;;;5030617;28;20041;-82
2023/10/28 09:37:39;;;;;;;11.30;6.47;;;;;;;;;;5048320;28;20097;-81
2023/10/28 09:40:07;;;;;;;15.77;7.22;;;;;;;;;;5050436;28;20036;-81
2023/10/28 09:42:34;;;;;;;11.18;7.07;;;;;;;;;;5051003;28;20415;-83
2023/10/28 09:45:01;;;;;;;12.88;7.30;;;;;;;;;;5054068;28;20040;-82
2023/10/28 09:47:39;;;;;;;9.30;6.50;;;;;;;;;;5086595;28;20071;-84
2023/10/28 09:50:07;;;;;;;9.75;6.85;;;;;;;;;;5067299;28;20068;-83
2023/10/28 09:52:34;;;;;;;10.90;6.88;;;;;;;;;;5053328;28;20083;-83
2023/10/28 09:55:05;;;;;;;13.90;7.55;;;;;;;;;;5054410;28;20051;-83
2023/10/28 09:57:32;;;;;;;11.10;7.07;;;;;;;;;;5052112;28;20044;-83
2023/10/28 09:59:58;;;;;;;13.02;6.03;;;;;;;;;;5053702;28;20122;-83
2023/10/28 10:02:27;;;;;;;9.48;6.13;;;;;;;;;;5044355;28;20043;-82
2023/10/28 10:05:00;;;;;;;10.57;5.45;;;;;;;;;;5060546;28;20044;-82
2023/10/28 10:07:26;;;;;;;8.60;5.40;;;;;;;;;;5047607;28;20072;-83
2023/10/28 10:09:53;;;;;;;11.98;5.32;;;;;;;;;;5048372;28;20080;-81
2023/10/28 10:12:19;;;;;;;12.60;5.05;;;;;;;;;;5062965;28;20128;-83
2023/10/28 10:14:46;;;;;;;7.07;4.53;;;;;;;;;;5048279;28;20066;-83
2023/10/28 10:17:22;;;;;;;11.23;6.03;;;;;;;;;;5047599;28;20737;-83
2023/10/28 10:19:49;;;;;;;9.45;5.18;;;;;;;;;;5066591;28;20084;-85
2023/10/28 10:22:18;;;;;;;12.45;5.32;;;;;;;;;;5048759;28;20032;-82
2023/10/28 10:24:50;;;;;;;12.85;6.10;;;;;;;;;;5048367;28;20463;-83
2023/10/28 10:27:36;;;;;;;7.50;5.18;;;;;;;;;;5067052;28;20053;-83
2023/10/28 10:30:06;;;;;;;10.93;5.07;;;;;;;;;;5069489;28;20036;-82
2023/10/28 10:32:40;;;;;;;8.35;5.32;;;;;;;;;;5047843;28;20044;-82
2023/10/28 10:35:14;;;;;;;11.98;6.05;;;;;;;;;;5065547;28;20049;-83
2023/10/28 10:37:40;;;;;;;8.48;5.82;;;;;;;;;;5063360;28;20052;-83
2023/10/28 10:40:10;;;;;;;8.45;6.18;;;;;;;;;;5041894;28;20036;-83
2023/10/28 10:42:37;;;;;;;10.50;5.28;;;;;;;;;;5047468;28;20044;-83
2023/10/28 10:45:03;;;;;;;9.60;5.22;;;;;;;;;;5045344;28;20128;-83
2023/10/28 10:47:30;;;;;;;12.82;5.93;;;;;;;;;;5046023;28;20040;-80
2023/10/28 10:49:56;;;;;;;11.35;5.70;;;;;;;;;;5047961;28;20225;-82
2023/10/28 10:52:23;;;;;;;9.77;5.80;;;;;;;;;;5067753;28;20451;-83
2023/10/28 10:54:49;;;;;;;11.23;5.57;;;;;;;;;;5050092;28;20045;-82
2023/10/28 10:57:15;;;;;;;8.10;5.97;;;;;;;;;;5063766;28;20137;-82
2023/10/28 10:59:41;;;;;;;13.45;6.72;;;;;;;;;;5063439;28;20037;-82
2023/10/28 11:02:10;;;;;;;13.88;5.47;;;;;;;;;;5045880;28;20040;-82
2023/10/28 11:04:39;;;;;;;15.25;6.20;;;;;;;;;;5037788;28;20827;-83
2023/10/28 11:07:07;;;;;;;12.70;6.53;;;;;;;;;;5059730;28;20037;-82
2023/10/28 11:09:34;;;;;;;12.85;5.55;;;;;;;;;;5066481;28;20385;-82
2023/10/28 11:12:01;;;;;;;7.85;5.47;;;;;;;;;;5050966;28;20131;-82
2023/10/28 11:14:27;;;;;;;9.82;5.20;;;;;;;;;;5050750;28;20381;-82
2023/10/28 11:16:53;;;;;;;9.35;5.15;;;;;;;;;;5065024;28;20045;-81
2023/10/28 11:19:19;;;;;;;11.68;5.85;;;;;;;;;;5046840;28;20480;-82
2023/10/28 11:21:46;;;;;;;9.20;5.65;;;;;;;;;;5062150;28;20045;-82
2023/10/28 11:24:13;;;;;;;7.28;5.25;;;;;;;;;;5063749;28;20051;-82
2023/10/28 11:26:40;;;;;;;8.00;5.15;;;;;;;;;;5048111;28;20181;-82
2023/10/28 11:29:07;;;;;;;12.10;5.78;;;;;;;;;;5046141;28;20036;-82
2023/10/28 11:31:34;;;;;;;13.27;5.45;;;;;;;;;;5029239;28;20065;-82
2023/10/28 11:34:04;;;;;;;11.63;5.72;;;;;;;;;;5041774;28;20147;-83
2023/10/28 11:36:31;;;;;;;8.65;4.70;;;;;;;;;;5045243;28;20055;-79
2023/10/28 11:38:57;;;;;;;12.05;6.15;;;;;;;;;;5043378;28;20044;-80
2023/10/28 11:41:24;;;;;;;10.27;5.40;;;;;;;;;;5050826;28;20055;-82
2023/10/28 11:43:51;;;;;;;10.63;5.63;;;;;;;;;;5045708;28;20067;-83
2023/10/28 11:46:17;;;;;;;8.63;6.22;;;;;;;;;;5031188;28;20102;-83
2023/10/28 11:48:46;;;;;;;10.23;6.15;;;;;;;;;;5034623;28;20438;-81
2023/10/28 11:51:13;;;;;;;9.77;5.93;;;;;;;;;;5063737;28;20048;-82
2023/10/28 11:53:44;;;;;;;11.60;6.55;;;;;;;;;;5080783;28;20068;-81
2023/10/28 11:56:10;;;;;;;13.68;6.53;;;;;;;;;;5064371;28;20047;-82
2023/10/28 11:58:36;;;;;;;9.48;6.18;;;;;;;;;;5051052;28;20040;-80
2023/10/28 12:01:02;;;;;;;9.90;6.40;;;;;;;;;;5048613;28;20173;-80
2023/10/28 12:03:28;;;;;;;11.60;6.20;;;;;;;;;;5063317;28;20786;-81
2023/10/28 12:05:54;;;;;;;13.25;6.75;;;;;;;;;;5048657;28;20033;-82
2023/10/28 12:08:20;;;;;;;13.02;6.07;;;;;;;;;;5059343;28;20033;-82
2023/10/28 12:10:46;;;;;;;13.57;5.72;;;;;;;;;;5024516;28;20185;-81
2023/10/28 12:13:13;;;;;;;7.63;5.57;;;;;;;;;;5060394;28;20044;-80
2023/10/28 12:15:39;;;;;;;11.98;5.43;;;;;;;;;;5029451;28;20141;-82
2023/10/28 12:18:06;;;;;;;7.75;5.38;;;;;;;;;;5046011;28;20036;-81
2023/10/28 12:20:32;;;;;;;13.70;5.60;;;;;;;;;;5042192;28;20163;-81
2023/10/28 12:22:58;;;;;;;9.27;5.07;;;;;;;;;;5061630;28;20483;-81
2023/10/28 12:25:24;;;;;;;9.45;5.20;;;;;;;;;;5043504;28;20052;-81
2023/10/28 12:27:51;;;;;;;10.68;5.10;;;;;;;;;;5040414;28;20043;-81
2023/10/28 12:30:18;;;;;;;10.68;4.68;;;;;;;;;;5045401;28;20044;-82
2023/10/28 12:32:44;;;;;;;9.88;5.20;;;;;;;;;;5023934;28;20037;-81
2023/10/28 12:35:10;;;;;;;10.48;5.38;;;;;;;;;;5046682;28;20044;-82
2023/10/28 12:37:38;;;;;;;13.95;5.72;;;;;;;;;;5036613;28;20056;-83
2023/10/28 12:40:05;;;;;;;12.02;5.72;;;;;;;;;;5040272;28;20044;-82
2023/10/28 12:42:34;;;;;;;10.93;4.90;;;;;;;;;;5053379;28;20045;-82
2023/10/28 12:45:00;;;;;;;10.23;5.60;;;;;;;;;;5051300;28;20045;-82
2023/10/28 12:47:26;;;;;;;11.73;5.40;;;;;;;;;;5046235;28;20040;-81
2023/10/28 12:49:52;;;;;;;11.30;5.05;;;;;;;;;;5051764;28;20048;-81
2023/10/28 12:52:20;;;;;;;10.10;6.15;;;;;;;;;;5032288;28;20400;-82
2023/10/28 12:54:46;;;;;;;8.60;4.95;;;;;;;;;;5051561;28;20044;-82
2023/10/28 12:57:13;;;;;;;8.85;5.00;;;;;;;;;;5065134;28;20087;-82
2023/10/28 12:59:39;;;;;;;9.32;5.85;;;;;;;;;;5052484;28;20032;-82
2023/10/28 13:02:05;;;;;;;8.52;5.30;;;;;;;;;;5052161;28;20075;-82
2023/10/28 13:04:31;;;;;;;11.98;6.30;;;;;;;;;;5052943;28;20056;-82
2023/10/28 13:06:57;;;;;;;12.70;7.30;;;;;;;;;;5052679;28;20033;-81
2023/10/28 13:09:25;;;;;;;9.60;5.55;;;;;;;;;;5051289;28;20182;-80
2023/10/28 13:11:51;;;;;;;18.27;6.32;;;;;;;;;;5029391;28;20037;-82
2023/10/28 13:14:18;;;;;;;7.78;5.70;;;;;;;;;;5054048;28;20039;-83
2023/10/28 13:16:45;;;;;;;12.30;5.07;;;;;;;;;;5067804;28;20145;-81
2023/10/28 13:19:12;;;;;;;15.68;6.32;;;;;;;;;;5033236;28;20072;-82
2023/10/28 13:21:40;;;;;;;8.50;5.90;;;;;;;;;;5052040;28;20032;-81
2023/10/28 13:24:06;;;;;;;10.55;5.22;;;;;;;;;;5069433;28;20131;-82
2023/10/28 13:26:32;;;;;;;10.30;5.20;;;;;;;;;;5053309;28;20131;-82
2023/10/28 13:28:58;;;;;;;7.93;4.70;;;;;;;;;;5052664;28;20483;-82
2023/10/28 13:31:24;;;;;;;9.90;4.85;;;;;;;;;;5054742;28;20451;-82
2023/10/28 13:33:50;;;;;;;10.75;5.22;;;;;;;;;;5071634;28;20040;-82
2023/10/28 13:36:16;;;;;;;12.82;5.97;;;;;;;;;;5051433;28;20029;-82
2023/10/28 13:38:42;;;;;;;12.65;5.88;;;;;;;;;;5068710;28;20039;-82
2023/10/28 13:41:08;;;;;;;9.20;5.80;;;;;;;;;;5034714;28;20738;-82
2023/10/28 13:43:35;;;;;;;14.48;5.78;;;;;;;;;;5067941;28;20032;-82
2023/10/28 13:46:03;;;;;;;8.38;4.93;;;;;;;;;;5065135;28;20059;-81
2023/10/28 13:48:29;;;;;;;10.35;5.13;;;;;;;;;;5050828;28;21399;-81
2023/10/28 13:50:55;;;;;;;12.30;5.90;;;;;;;;;;5051706;28;20073;-82
2023/10/28 13:53:22;;;;;;;14.07;5.63;;;;;;;;;;5050314;28;20084;-82
2023/10/28 13:55:48;;;;;;;6.63;3.95;;;;;;;;;;5063686;28;20069;-82
2023/10/28 13:58:14;;;;;;;10.57;5.38;;;;;;;;;;5050464;28;20136;-82
2023/10/28 14:00:41;;;;;;;8.13;4.00;;;;;;;;;;5050730;28;20050;-82
2023/10/28 14:03:12;;;;;;;10.48;4.70;;;;;;;;;;5063262;28;20043;-82
2023/10/28 14:05:38;;;;;;;8.55;4.32;;;;;;;;;;5048144;28;20055;-82
2023/10/28 14:08:04;;;;;;;11.40;3.88;;;;;;;;;;5066563;28;20115;-81
2023/10/28 14:10:30;;;;;;;5.82;3.30;;;;;;;;;;5064822;28;20040;-81
2023/10/28 14:12:57;;;;;;;5.78;3.30;;;;;;;;;;5069178;28;20094;-81
2023/10/28 14:15:24;;;;;;;9.40;3.80;;;;;;;;;;5048640;28;20053;-82
2023/10/28 14:17:50;;;;;;;10.65;3.95;;;;;;;;;;5047405;28;20496;-81
2023/10/28 14:20:18;;;;;;;6.65;3.10;;;;;;;;;;5047858;28;20036;-82